Time;durP1;ratioP1;P1;durP2;ratioP2;P2;SDS_P1;SDS_P2;PMS_P1;PMS_P2;Temp;Humidity;BMP_temperature;BMP_pressure;BME280_temperature;BME280_humidity;BME280_pressure;Samples;Min_cycle;Max_cycle;Signal;HPM_P1;HPM_P2
2022/09/22 00:01:38;;;;;;;2.17;0.10;;;6.90;99.90;;;;;;5034519;28;20106;-74
2022/09/22 00:04:08;;;;;;;0.70;0.10;;;6.80;99.90;;;;;;5033189;28;20120;-74
2022/09/22 00:06:38;;;;;;;1.15;0.10;;;6.80;99.90;;;;;;5034603;28;20072;-73
2022/09/22 00:09:06;;;;;;;1.17;0.10;;;6.80;99.90;;;;;;5033585;28;20493;-74
2022/09/22 00:11:37;;;;;;;4.05;0.28;;;6.70;99.90;;;;;;5034222;28;20029;-73
2022/09/22 00:14:14;;;;;;;0.80;0.10;;;6.70;99.90;;;;;;5034671;28;20022;-74
2022/09/22 00:16:43;;;;;;;0.85;0.20;;;6.70;99.90;;;;;;5034282;28;20026;-73
2022/09/22 00:19:15;;;;;;;0.60;0.00;;;6.60;99.90;;;;;;5034555;28;20020;-73
2022/09/22 00:21:41;;;;;;;1.95;0.30;;;6.60;99.90;;;;;;5034600;28;20421;-73
2022/09/22 00:24:07;;;;;;;3.13;0.10;;;6.60;99.90;;;;;;5034563;28;20022;-73
2022/09/22 00:26:34;;;;;;;3.60;0.10;;;6.60;99.90;;;;;;5032796;28;20029;-73
2022/09/22 00:29:01;;;;;;;3.25;0.90;;;6.50;99.90;;;;;;5034087;28;20021;-73
2022/09/22 00:31:28;;;;;;;2.95;0.88;;;6.50;99.90;;;;;;5034273;28;20392;-74
2022/09/22 00:33:54;;;;;;;1.65;0.20;;;6.50;99.90;;;;;;5032938;28;20527;-74
2022/09/22 00:36:25;;;;;;;1.17;0.10;;;6.40;99.90;;;;;;5034015;28;20024;-74
2022/09/22 00:38:52;;;;;;;1.05;0.10;;;6.40;99.90;;;;;;5032841;28;20372;-74
2022/09/22 00:41:31;;;;;;;7.65;0.20;;;6.40;99.90;;;;;;5033821;28;20151;-74
2022/09/22 00:44:24;;;;;;;2.28;0.35;;;6.40;99.90;;;;;;5034171;28;20355;-74
2022/09/22 00:46:55;;;;;;;1.02;0.20;;;6.40;99.90;;;;;;5033772;28;20029;-74
2022/09/22 00:49:30;;;;;;;0.60;0.40;;;6.40;99.90;;;;;;5034358;28;20032;-74
2022/09/22 00:51:56;;;;;;;4.03;0.28;;;6.40;99.90;;;;;;5034163;28;20455;-73
2022/09/22 00:54:21;;;;;;;2.67;0.20;;;6.30;99.90;;;;;;5033810;28;20052;-74
2022/09/22 00:57:03;;;;;;;5.20;0.43;;;6.30;99.90;;;;;;5034168;28;20057;-74
2022/09/22 00:59:29;;;;;;;1.95;0.10;;;6.30;99.90;;;;;;5033792;28;20018;-74
2022/09/22 01:01:54;;;;;;;3.28;0.75;;;6.30;99.90;;;;;;5033696;28;20057;-74
2022/09/22 01:04:21;;;;;;;4.72;0.80;;;6.40;99.90;;;;;;5032683;28;20018;-73
2022/09/22 01:06:47;;;;;;;2.40;0.30;;;6.30;99.90;;;;;;5033743;28;20080;-73
2022/09/22 01:09:14;;;;;;;0.82;0.10;;;6.30;99.90;;;;;;5033802;28;20029;-73
2022/09/22 01:11:40;;;;;;;2.20;0.30;;;6.20;99.90;;;;;;5033659;28;20029;-74
2022/09/22 01:14:31;;;;;;;1.13;0.20;;;6.20;99.90;;;;;;5032437;28;20030;-74
2022/09/22 01:17:39;;;;;;;1.17;0.40;;;6.20;99.90;;;;;;5031898;28;20068;-74
2022/09/22 01:20:34;;;;;;;1.87;0.33;;;6.20;99.90;;;;;;5033594;28;20018;-74
2022/09/22 01:23:20;;;;;;;1.30;0.22;;;6.10;99.90;;;;;;5023484;28;20033;-74
2022/09/22 01:25:56;;;;;;;1.65;0.32;;;6.10;99.90;;;;;;5033520;28;20029;-74
2022/09/22 01:29:04;;;;;;;2.75;0.30;;;6.10;99.90;;;;;;5033309;28;20022;-74
2022/09/22 01:31:46;;;;;;;2.53;0.30;;;6.10;99.90;;;;;;5033851;28;20036;-74
2022/09/22 01:34:30;;;;;;;3.30;0.38;;;6.10;99.90;;;;;;5033962;28;20018;-73
2022/09/22 01:37:21;;;;;;;2.35;0.40;;;6.10;99.90;;;;;;5033570;28;20467;-73
2022/09/22 01:40:30;;;;;;;2.65;0.60;;;6.10;99.90;;;;;;5048585;28;20017;-73
2022/09/22 01:43:37;;;;;;;0.65;0.20;;;6.10;99.90;;;;;;5029975;28;20084;-73
2022/09/22 01:46:11;;;;;;;2.75;0.30;;;6.10;99.90;;;;;;5011466;28;20123;-74
2022/09/22 01:48:41;;;;;;;3.80;0.82;;;6.10;99.90;;;;;;5012452;28;20026;-74
2022/09/22 01:51:13;;;;;;;2.33;0.47;;;6.10;99.90;;;;;;5027148;28;20030;-74
2022/09/22 01:53:49;;;;;;;2.80;0.60;;;6.10;99.90;;;;;;5037259;28;20471;-74
2022/09/22 01:56:17;;;;;;;2.58;0.63;;;6.00;99.90;;;;;;5035659;28;20112;-74
2022/09/22 01:58:47;;;;;;;2.25;0.30;;;6.00;99.90;;;;;;5035821;28;20108;-74
2022/09/22 02:01:27;;;;;;;9.25;0.50;;;6.00;99.90;;;;;;5037074;28;20029;-74
2022/09/22 02:04:02;;;;;;;2.85;0.65;;;6.00;99.90;;;;;;5036182;28;20470;-75
2022/09/22 02:06:43;;;;;;;2.25;0.93;;;5.90;99.90;;;;;;5035655;28;20520;-74
2022/09/22 02:09:14;;;;;;;1.77;0.60;;;5.90;99.90;;;;;;5035478;28;20521;-73
2022/09/22 02:11:39;;;;;;;4.45;0.77;;;5.90;99.90;;;;;;5036957;28;20430;-73
2022/09/22 02:14:06;;;;;;;1.67;0.28;;;6.00;99.90;;;;;;5035479;28;20013;-73
2022/09/22 02:16:32;;;;;;;1.60;0.68;;;5.90;99.90;;;;;;5036879;28;20041;-74
2022/09/22 02:19:22;;;;;;;3.53;0.70;;;5.90;99.90;;;;;;5035690;28;20487;-74
2022/09/22 02:21:48;;;;;;;4.53;0.50;;;5.90;99.90;;;;;;5036695;28;20022;-74
2022/09/22 02:24:34;;;;;;;2.50;0.82;;;5.90;99.90;;;;;;5036857;28;20116;-73
2022/09/22 02:27:04;;;;;;;4.40;0.77;;;5.90;99.90;;;;;;5036137;28;20029;-73
2022/09/22 02:29:34;;;;;;;4.28;1.98;;;5.80;99.90;;;;;;5036482;28;20049;-73
2022/09/22 02:32:04;;;;;;;7.95;1.60;;;5.80;99.90;;;;;;5036487;28;20022;-73
2022/09/22 02:34:30;;;;;;;6.55;1.85;;;5.80;99.90;;;;;;5035020;28;20048;-73
2022/09/22 02:37:33;;;;;;;6.35;2.72;;;6.00;99.90;;;;;;5036397;28;20053;-73
2022/09/22 02:40:06;;;;;;;11.57;6.28;;;5.80;99.90;;;;;;5036526;28;20026;-74
2022/09/22 02:42:41;;;;;;;12.02;6.13;;;5.80;99.90;;;;;;5034976;28;20033;-74
2022/09/22 02:45:25;;;;;;;15.93;7.85;;;5.80;99.90;;;;;;5036421;28;20470;-75
2022/09/22 02:47:52;;;;;;;12.48;6.63;;;5.80;99.90;;;;;;5034707;28;20022;-75
2022/09/22 02:50:21;;;;;;;18.80;7.00;;;5.80;99.90;;;;;;5036372;28;20071;-74
2022/09/22 02:52:49;;;;;;;;;;;5.70;99.90;;;;;;5036656;28;20018;-75
2022/09/22 02:55:15;;;;;;;10.07;5.37;;;5.70;99.90;;;;;;5035829;28;19909;-74
2022/09/22 02:57:42;;;;;;;7.68;4.32;;;5.60;99.90;;;;;;5035770;28;20318;-75
2022/09/22 03:00:08;;;;;;;7.57;4.85;;;5.60;99.90;;;;;;5034255;28;20373;-74
2022/09/22 03:02:34;;;;;;;6.80;4.78;;;5.60;99.90;;;;;;5035685;28;20049;-74
2022/09/22 03:04:59;;;;;;;12.60;4.57;;;5.60;99.90;;;;;;5034368;28;20135;-75
2022/09/22 03:07:25;;;;;;;6.28;4.00;;;5.60;99.90;;;;;;5035619;28;20017;-74
2022/09/22 03:09:51;;;;;;;4.00;2.50;;;5.70;99.90;;;;;;5035623;28;20056;-74
2022/09/22 03:12:17;;;;;;;2.80;1.95;;;5.60;99.90;;;;;;5036069;28;20048;-74
2022/09/22 03:14:43;;;;;;;6.70;1.88;;;5.70;99.90;;;;;;5035617;28;20025;-74
2022/09/22 03:17:08;;;;;;;4.95;1.38;;;5.60;99.90;;;;;;5035430;28;20032;-74
2022/09/22 03:19:34;;;;;;;5.88;1.15;;;5.60;99.90;;;;;;5034234;28;20036;-74
2022/09/22 03:21:59;;;;;;;3.97;1.70;;;5.60;99.90;;;;;;5035369;28;20097;-73
2022/09/22 03:24:26;;;;;;;3.20;0.95;;;5.60;99.90;;;;;;5034051;28;20076;-73
2022/09/22 03:26:51;;;;;;;2.60;0.77;;;5.60;99.90;;;;;;5035230;28;20048;-74
2022/09/22 03:29:17;;;;;;;2.67;0.82;;;5.60;99.90;;;;;;5035262;28;20051;-74
2022/09/22 03:31:42;;;;;;;2.40;0.60;;;5.50;99.90;;;;;;5035231;28;20052;-73
2022/09/22 03:34:08;;;;;;;4.10;0.75;;;5.50;99.90;;;;;;5035636;28;20029;-74
2022/09/22 03:36:34;;;;;;;5.88;0.93;;;5.50;99.90;;;;;;5033695;28;20025;-73
2022/09/22 03:38:59;;;;;;;1.75;0.80;;;5.50;99.90;;;;;;5034998;28;20032;-73
2022/09/22 03:41:25;;;;;;;2.20;0.70;;;5.40;99.90;;;;;;5035312;28;20021;-74
2022/09/22 03:43:51;;;;;;;3.35;1.00;;;5.40;99.90;;;;;;5034946;28;20022;-73
2022/09/22 03:46:16;;;;;;;3.75;0.90;;;5.40;99.90;;;;;;5034972;28;20384;-74
2022/09/22 03:48:42;;;;;;;2.90;0.45;;;5.40;99.90;;;;;;5035238;28;20025;-73
2022/09/22 03:51:08;;;;;;;9.95;0.98;;;5.40;99.90;;;;;;5035342;28;20497;-74
2022/09/22 03:53:34;;;;;;;3.92;1.30;;;5.40;99.90;;;;;;5034806;28;20029;-73
2022/09/22 03:56:08;;;;;;;5.38;0.90;;;5.40;99.90;;;;;;5035015;28;20030;-73
2022/09/22 03:58:34;;;;;;;1.33;0.60;;;5.30;99.90;;;;;;5034937;28;20490;-73
2022/09/22 04:01:00;;;;;;;1.10;0.45;;;5.30;99.90;;;;;;5034584;28;20030;-73
2022/09/22 04:03:25;;;;;;;1.40;0.65;;;5.30;99.90;;;;;;5033335;28;20025;-73
2022/09/22 04:05:51;;;;;;;3.75;0.80;;;5.20;99.90;;;;;;5034682;28;20032;-74
2022/09/22 04:08:17;;;;;;;1.98;0.68;;;5.20;99.90;;;;;;5034623;28;20382;-73
2022/09/22 04:10:46;;;;;;;3.75;1.13;;;5.30;99.90;;;;;;5034342;28;20029;-74
2022/09/22 04:13:12;;;;;;;1.65;0.50;;;5.30;99.90;;;;;;5032920;28;20017;-74
2022/09/22 04:15:38;;;;;;;2.25;1.00;;;5.30;99.90;;;;;;5034669;28;20029;-74
2022/09/22 04:18:04;;;;;;;1.42;0.73;;;5.20;99.90;;;;;;5032984;28;20390;-73
2022/09/22 04:20:29;;;;;;;2.58;1.08;;;5.20;99.90;;;;;;5034611;28;20025;-73
2022/09/22 04:22:55;;;;;;;1.70;0.85;;;5.20;99.90;;;;;;5034249;28;20029;-74
2022/09/22 04:25:21;;;;;;;3.03;0.90;;;5.10;99.90;;;;;;5032758;28;20029;-73
2022/09/22 04:27:46;;;;;;;11.02;2.03;;;5.10;99.90;;;;;;5033978;28;20025;-73
2022/09/22 04:30:12;;;;;;;2.63;1.25;;;5.10;99.90;;;;;;5034142;28;20112;-74
2022/09/22 04:32:38;;;;;;;7.65;0.95;;;5.10;99.90;;;;;;5034413;28;20017;-74
2022/09/22 04:35:04;;;;;;;1.23;0.65;;;5.10;99.90;;;;;;5034060;28;20028;-74
2022/09/22 04:37:30;;;;;;;5.25;0.98;;;5.10;99.90;;;;;;5034178;28;20025;-74
2022/09/22 04:39:56;;;;;;;2.47;1.10;;;5.00;99.90;;;;;;5033857;28;20022;-74
2022/09/22 04:42:22;;;;;;;2.47;1.02;;;5.00;99.90;;;;;;5034214;28;20050;-74
2022/09/22 04:44:48;;;;;;;2.97;0.73;;;5.00;99.90;;;;;;5034221;28;20053;-74
2022/09/22 04:47:13;;;;;;;2.35;1.05;;;5.00;99.90;;;;;;5033877;28;20057;-74
2022/09/22 04:49:39;;;;;;;4.45;0.95;;;5.00;99.90;;;;;;5034278;28;20018;-74
2022/09/22 04:52:04;;;;;;;7.07;1.20;;;5.00;99.90;;;;;;5034048;28;20021;-73
2022/09/22 04:54:31;;;;;;;3.90;1.00;;;5.00;99.90;;;;;;5033663;28;20025;-73
2022/09/22 04:56:56;;;;;;;4.18;1.13;;;5.00;99.90;;;;;;5033995;28;20028;-73
2022/09/22 04:59:22;;;;;;;2.97;0.82;;;5.00;99.90;;;;;;5032486;28;20033;-74
2022/09/22 05:01:50;;;;;;;1.83;0.80;;;4.90;99.90;;;;;;5033758;28;20021;-73
2022/09/22 05:04:16;;;;;;;2.75;1.42;;;4.90;99.90;;;;;;5033559;28;20171;-74
2022/09/22 05:06:42;;;;;;;2.38;0.85;;;4.90;99.90;;;;;;5033798;28;20395;-74
2022/09/22 05:09:08;;;;;;;2.65;0.55;;;5.00;99.90;;;;;;5033538;28;20022;-74
2022/09/22 05:11:33;;;;;;;2.80;0.85;;;4.90;99.90;;;;;;5033682;28;20360;-73
2022/09/22 05:13:59;;;;;;;5.05;1.05;;;5.00;99.90;;;;;;5032237;28;20018;-73
2022/09/22 05:16:25;;;;;;;3.33;0.98;;;4.90;99.90;;;;;;5042530;22;20021;-73
2022/09/22 05:18:51;;;;;;;1.02;0.60;;;4.90;99.90;;;;;;5052329;28;20063;-73
2022/09/22 05:21:17;;;;;;;3.53;1.55;;;4.90;99.90;;;;;;5052087;28;20083;-73
2022/09/22 05:23:43;;;;;;;1.73;0.57;;;4.80;99.90;;;;;;5055121;28;20029;-73
2022/09/22 05:26:09;;;;;;;6.28;0.77;;;4.90;99.90;;;;;;5056128;28;20027;-73
2022/09/22 05:28:35;;;;;;;2.13;0.88;;;4.90;99.90;;;;;;5057429;28;20070;-74
2022/09/22 05:31:00;;;;;;;2.90;1.00;;;4.90;99.90;;;;;;5056129;28;20025;-74
2022/09/22 05:33:26;;;;;;;3.53;1.20;;;4.90;99.90;;;;;;5057418;28;20020;-74
2022/09/22 05:35:52;;;;;;;2.75;0.93;;;4.90;99.90;;;;;;5057384;28;20025;-74
2022/09/22 05:38:17;;;;;;;3.30;1.33;;;4.90;99.90;;;;;;5057325;28;20048;-74
2022/09/22 05:40:46;;;;;;;5.85;1.90;;;4.90;99.90;;;;;;5057207;28;20486;-74
2022/09/22 05:43:12;;;;;;;4.57;0.98;;;4.90;99.90;;;;;;5056028;28;20021;-74
2022/09/22 05:45:38;;;;;;;5.90;1.83;;;4.90;99.90;;;;;;5057358;28;20063;-74
2022/09/22 05:48:03;;;;;;;4.82;1.70;;;4.90;99.90;;;;;;5057135;28;20167;-73
2022/09/22 05:50:29;;;;;;;2.25;1.15;;;4.90;99.90;;;;;;5057513;28;20033;-75
2022/09/22 05:53:03;;;;;;;7.20;2.03;;;5.00;99.90;;;;;;5057638;28;20377;-73
2022/09/22 05:55:29;;;;;;;5.65;2.00;;;5.00;99.90;;;;;;5057504;28;20048;-73
2022/09/22 05:57:56;;;;;;;3.72;1.73;;;5.10;99.90;;;;;;5044764;28;20029;-73
2022/09/22 06:00:21;;;;;;;5.28;1.52;;;5.20;99.90;;;;;;5039263;28;20028;-73
2022/09/22 06:02:47;;;;;;;5.97;1.95;;;5.20;99.90;;;;;;5057430;28;20029;-73
2022/09/22 06:05:15;;;;;;;7.45;1.83;;;5.30;99.90;;;;;;5047368;28;20029;-73
2022/09/22 06:07:44;;;;;;;3.15;1.85;;;5.40;99.90;;;;;;5046824;28;20021;-73
2022/09/22 06:10:10;;;;;;;;;;;5.40;99.90;;;;;;5047458;28;20017;-73
2022/09/22 06:12:36;;;;;;;17.85;2.33;;;5.50;99.90;;;;;;5047408;28;19955;-73
2022/09/22 06:15:03;;;;;;;9.27;2.08;;;5.50;99.90;;;;;;5057728;28;20021;-75
2022/09/22 06:17:29;;;;;;;5.22;1.70;;;5.60;99.90;;;;;;5056793;28;20553;-75
2022/09/22 06:19:54;;;;;;;6.15;2.15;;;5.70;99.90;;;;;;5056936;28;20064;-75
2022/09/22 06:22:22;;;;;;;3.95;2.28;;;5.80;99.90;;;;;;5056604;28;20048;-75
2022/09/22 06:24:48;;;;;;;8.05;2.10;;;5.90;99.90;;;;;;5057045;28;20386;-75
2022/09/22 06:27:13;;;;;;;7.22;2.00;;;6.00;99.90;;;;;;5055047;28;20028;-75
2022/09/22 06:29:41;;;;;;;5.68;1.88;;;6.10;99.90;;;;;;5056386;28;20067;-75
2022/09/22 06:32:07;;;;;;;5.05;2.08;;;6.20;99.90;;;;;;5056531;28;20021;-75
2022/09/22 06:34:34;;;;;;;5.88;2.40;;;6.20;99.90;;;;;;5055941;28;20466;-75
2022/09/22 06:37:01;;;;;;;5.85;2.60;;;6.40;99.90;;;;;;5056188;28;20386;-75
2022/09/22 06:39:26;;;;;;;7.65;3.30;;;6.60;99.90;;;;;;5054820;28;20024;-75
2022/09/22 06:41:55;;;;;;;9.60;2.78;;;6.80;99.90;;;;;;5056659;28;20029;-75
2022/09/22 06:44:20;;;;;;;8.48;2.97;;;6.90;99.90;;;;;;5056121;28;20021;-75
2022/09/22 06:46:46;;;;;;;4.38;3.05;;;7.10;99.90;;;;;;5055763;28;20044;-74
2022/09/22 06:49:12;;;;;;;8.13;2.78;;;7.30;99.90;;;;;;5056314;28;20043;-74
2022/09/22 06:51:38;;;;;;;9.90;3.05;;;7.50;99.90;;;;;;5056452;28;20071;-74
2022/09/22 06:54:04;;;;;;;4.57;2.75;;;7.70;99.90;;;;;;5055865;28;20021;-74
2022/09/22 06:56:38;;;;;;;5.65;2.63;;;7.80;99.90;;;;;;5056150;28;20071;-75
2022/09/22 06:59:09;;;;;;;8.40;2.88;;;8.00;99.90;;;;;;5056336;28;20104;-75
2022/09/22 07:01:35;;;;;;;4.35;2.60;;;8.20;99.90;;;;;;5056129;28;20044;-75
2022/09/22 07:04:00;;;;;;;5.53;3.03;;;8.40;99.90;;;;;;5055670;28;20025;-75
2022/09/22 07:06:26;;;;;;;8.15;4.05;;;8.50;99.90;;;;;;5056101;28;20124;-75
2022/09/22 07:08:51;;;;;;;6.28;3.00;;;8.70;99.90;;;;;;5055457;28;20029;-75
2022/09/22 07:11:22;;;;;;;7.68;3.15;;;8.80;99.90;;;;;;5055404;28;20025;-76
2022/09/22 07:13:49;;;;;;;5.57;2.92;;;9.00;99.90;;;;;;5054103;28;20048;-75
2022/09/22 07:16:16;;;;;;;8.88;3.90;;;9.20;99.90;;;;;;5055147;28;20029;-75
2022/09/22 07:18:44;;;;;;;9.02;3.17;;;9.30;99.90;;;;;;5055267;28;20040;-75
2022/09/22 07:21:14;;;;;;;11.38;3.53;;;9.50;99.90;;;;;;5055406;28;20031;-75
2022/09/22 07:23:40;;;;;;;9.40;3.85;;;9.70;99.90;;;;;;5055171;28;20063;-75
2022/09/22 07:26:11;;;;;;;9.55;4.22;;;9.80;99.90;;;;;;5053687;28;20035;-74
2022/09/22 07:28:37;;;;;;;8.82;3.78;;;9.90;99.90;;;;;;5054719;28;20398;-74
2022/09/22 07:31:08;;;;;;;6.63;3.80;;;10.10;99.90;;;;;;5054922;28;20021;-74
2022/09/22 07:33:35;;;;;;;8.13;4.32;;;10.20;99.90;;;;;;5055278;28;20025;-76
2022/09/22 07:36:09;;;;;;;11.70;5.03;;;10.40;99.90;;;;;;5053974;28;20021;-76
2022/09/22 07:38:39;;;;;;;8.77;4.43;;;10.60;99.90;;;;;;5055430;28;20033;-76
2022/09/22 07:41:07;;;;;;;9.20;3.90;;;10.70;99.90;;;;;;5055316;28;20036;-76
2022/09/22 07:43:34;;;;;;;8.45;4.10;;;10.90;99.90;;;;;;5054762;28;20095;-76
2022/09/22 07:45:59;;;;;;;7.07;4.28;;;11.00;99.90;;;;;;5053935;28;20078;-76
2022/09/22 07:48:40;;;;;;;9.85;4.18;;;11.10;99.90;;;;;;5053323;28;20028;-76
2022/09/22 07:51:07;;;;;;;8.65;4.30;;;11.20;99.90;;;;;;5053356;28;20013;-76
2022/09/22 07:53:38;;;;;;;7.95;3.67;;;11.30;99.90;;;;;;5050558;28;20112;-75
2022/09/22 07:56:12;;;;;;;7.90;4.20;;;11.50;99.90;;;;;;5047196;28;20022;-75
2022/09/22 07:58:52;;;;;;;7.35;4.25;;;11.60;99.90;;;;;;5033060;28;20564;-75
2022/09/22 08:01:22;;;;;;;10.90;4.43;;;11.70;99.90;;;;;;5034442;28;20021;-76
2022/09/22 08:03:47;;;;;;;8.30;3.65;;;11.90;99.90;;;;;;5033193;28;20090;-76
2022/09/22 08:06:15;;;;;;;7.97;3.40;;;12.00;99.90;;;;;;5034259;28;20033;-76
2022/09/22 08:08:43;;;;;;;9.02;3.78;;;12.10;99.90;;;;;;5034205;28;20021;-75
2022/09/22 08:11:14;;;;;;;8.37;4.30;;;12.30;99.90;;;;;;5034501;28;20502;-75
2022/09/22 08:13:52;;;;;;;6.50;3.33;;;12.40;99.90;;;;;;5034422;28;20041;-76
2022/09/22 08:16:19;;;;;;;8.53;3.73;;;12.50;99.90;;;;;;5034091;28;20025;-75
2022/09/22 08:18:53;;;;;;;6.28;2.95;;;12.70;99.90;;;;;;5034427;28;20029;-75
2022/09/22 08:21:19;;;;;;;6.18;3.08;;;12.80;99.90;;;;;;5032848;28;20049;-75
2022/09/22 08:23:44;;;;;;;4.70;2.92;;;12.90;99.90;;;;;;5033918;28;20482;-75
2022/09/22 08:26:10;;;;;;;5.85;3.30;;;13.00;99.90;;;;;;5032693;28;20037;-75
2022/09/22 08:28:37;;;;;;;7.55;3.25;;;13.10;99.90;;;;;;5034156;28;20028;-75
2022/09/22 08:31:02;;;;;;;9.80;3.40;;;13.20;99.90;;;;;;5034099;28;20487;-75
2022/09/22 08:33:30;;;;;;;9.35;2.75;;;13.30;99.90;;;;;;5032563;28;20032;-75
2022/09/22 08:36:02;;;;;;;6.30;3.35;;;13.40;99.90;;;;;;5033879;28;20079;-75
2022/09/22 08:38:29;;;;;;;5.55;2.83;;;13.50;99.90;;;;;;5034126;28;20021;-75
2022/09/22 08:41:14;;;;;;;11.95;3.22;;;13.70;99.90;;;;;;5033933;28;20101;-75
2022/09/22 08:43:54;;;;;;;6.20;2.55;;;13.80;99.90;;;;;;5034288;28;20091;-75
2022/09/22 08:46:26;;;;;;;5.97;2.35;;;13.90;99.90;;;;;;5033670;28;20542;-75
2022/09/22 08:51:50;;;;;;;4.15;2.28;;;14.10;99.90;;;;;;5033924;28;20525;-76
2022/09/22 08:54:17;;;;;;;7.55;3.17;;;14.20;99.90;;;;;;5033820;28;20052;-76
2022/09/22 08:57:01;;;;;;;6.47;2.88;;;14.30;99.90;;;;;;5032197;28;20018;-76
2022/09/22 08:59:37;;;;;;;5.40;2.22;;;14.50;99.90;;;;;;5031603;28;20053;-76
2022/09/22 09:02:31;;;;;;;5.40;2.33;;;14.60;99.90;;;;;;5032310;28;20026;-75
2022/09/22 09:05:35;;;;;;;8.82;2.17;;;14.70;99.90;;;;;;5033661;28;20131;-75
2022/09/22 09:08:45;;;;;;;12.95;2.63;;;14.90;99.90;;;;;;5033421;28;20060;-75
2022/09/22 09:11:29;;;;;;;5.47;1.73;;;15.00;99.90;;;;;;5014176;28;20038;-75
2022/09/22 09:14:06;;;;;;;2.60;1.50;;;15.10;99.90;;;;;;5034037;28;20030;-75
2022/09/22 09:16:34;;;;;;;4.22;1.73;;;15.30;99.90;;;;;;5033503;28;20018;-76
2022/09/22 09:19:10;;;;;;;6.90;2.05;;;15.40;99.90;;;;;;5033295;28;20033;-75
2022/09/22 09:21:38;;;;;;;3.10;1.85;;;15.50;99.90;;;;;;5033399;28;20101;-75
2022/09/22 09:24:09;;;;;;;6.40;2.13;;;15.60;99.90;;;;;;5033306;28;20036;-75
2022/09/22 09:26:35;;;;;;;5.07;1.20;;;15.70;99.90;;;;;;5033239;28;20025;-75
2022/09/22 09:29:06;;;;;;;4.97;1.30;;;15.80;99.90;;;;;;5033140;28;20104;-76
2022/09/22 09:31:52;;;;;;;5.88;1.38;;;15.90;99.90;;;;;;5033311;28;20418;-75
2022/09/22 09:34:21;;;;;;;3.10;1.30;;;16.00;99.90;;;;;;5033370;28;20029;-75
2022/09/22 09:36:54;;;;;;;;;;;16.10;99.90;;;;;;5033777;28;20084;-75
2022/09/22 09:39:38;;;;;;;3.90;1.08;;;16.30;99.90;;;;;;5033358;28;19905;-77
2022/09/22 09:42:25;;;;;;;2.83;1.50;;;16.40;99.90;;;;;;5033292;28;20041;-75
2022/09/22 09:45:01;;;;;;;2.92;1.60;;;16.40;99.90;;;;;;5033060;28;20037;-76
2022/09/22 09:47:34;;;;;;;5.18;1.63;;;16.60;99.90;;;;;;5032938;28;20026;-75
2022/09/22 09:50:03;;;;;;;5.00;1.92;;;16.60;99.90;;;;;;5031776;28;20025;-76
2022/09/22 09:52:29;;;;;;;6.20;1.98;;;16.80;99.90;;;;;;5031729;28;20021;-76
2022/09/22 09:54:55;;;;;;;9.23;1.05;;;16.90;99.90;;;;;;5033262;28;20028;-76
2022/09/22 09:57:28;;;;;;;3.97;1.10;;;17.00;99.90;;;;;;5072756;23;20129;-76
2022/09/22 10:00:36;;;;;;;5.57;1.10;;;18.80;99.90;;;;;;5051191;28;20513;-76
2022/09/22 10:03:01;;;;;;;5.60;1.00;;;17.20;99.90;;;;;;5037104;28;20557;-76
2022/09/22 10:05:31;;;;;;;2.95;0.85;;;17.40;99.90;;;;;;5051870;28;20068;-76
2022/09/22 10:08:00;;;;;;;7.50;1.55;;;17.40;99.90;;;;;;5051432;28;20116;-76
2022/09/22 10:10:28;;;;;;;1.85;1.00;;;17.40;99.90;;;;;;5055123;28;20477;-76
2022/09/22 10:13:27;;;;;;;4.88;1.02;;;17.40;99.90;;;;;;5056374;28;20016;-76
2022/09/22 10:16:24;;;;;;;4.43;1.15;;;17.50;99.90;;;;;;5056387;28;20017;-76
2022/09/22 10:19:21;;;;;;;3.97;1.52;;;17.30;99.90;;;;;;5055165;28;20537;-76
2022/09/22 10:21:49;;;;;;;4.70;1.38;;;17.40;99.90;;;;;;5056503;28;20112;-76
2022/09/22 10:24:32;;;;;;;5.22;1.20;;;17.50;99.90;;;;;;5055914;28;20033;-75
2022/09/22 10:26:58;;;;;;;4.18;1.00;;;17.60;99.90;;;;;;5054909;28;20096;-76
2022/09/22 10:29:24;;;;;;;4.43;0.95;;;17.70;99.90;;;;;;5056407;28;20024;-76
2022/09/22 10:32:15;;;;;;;2.17;1.00;;;17.80;99.90;;;;;;5056681;28;20048;-77
2022/09/22 10:34:47;;;;;;;2.45;1.10;;;17.90;99.90;;;;;;5056184;28;20024;-76
2022/09/22 10:37:22;;;;;;;7.22;1.40;;;18.00;99.90;;;;;;5055986;28;20025;-76
2022/09/22 10:39:50;;;;;;;4.43;1.42;;;18.10;99.90;;;;;;5054752;28;20017;-77
2022/09/22 10:42:36;;;;;;;4.27;1.67;;;18.10;99.90;;;;;;5054662;28;20058;-77
2022/09/22 10:45:06;;;;;;;2.03;1.80;;;18.20;99.90;;;;;;5055000;28;20267;-75
2022/09/22 10:47:38;;;;;;;2.67;1.25;;;18.30;99.90;;;;;;5055917;28;20025;-76
2022/09/22 10:50:40;;;;;;;3.70;1.00;;;18.30;99.90;;;;;;5054612;28;20017;-76
2022/09/22 10:53:38;;;;;;;3.35;1.15;;;18.60;99.90;;;;;;5056055;28;20025;-76
2022/09/22 10:56:22;;;;;;;5.45;1.10;;;18.60;98.70;;;;;;5055743;28;20036;-76
2022/09/22 10:59:06;;;;;;;5.88;1.25;;;18.70;98.60;;;;;;5055953;28;20482;-76
2022/09/22 11:02:05;;;;;;;20.42;1.65;;;18.80;99.70;;;;;;5054331;28;20033;-76
2022/09/22 11:04:33;;;;;;;3.35;1.90;;;19.00;99.20;;;;;;5056796;28;20033;-76
2022/09/22 11:13:20;;;;;;;2.85;1.33;;;19.60;98.20;;;;;;5056273;28;20071;-76
2022/09/22 11:16:09;;;;;;;2.97;1.40;;;19.60;96.60;;;;;;5055230;28;20055;-75
2022/09/22 11:18:59;;;;;;;3.15;1.20;;;19.70;96.40;;;;;;5055288;28;20139;-76
2022/09/22 11:21:26;;;;;;;2.13;0.95;;;19.80;96.40;;;;;;5052825;28;20029;-76
2022/09/22 11:24:36;;;;;;;4.65;1.13;;;19.90;94.80;;;;;;5055031;28;20040;-76
2022/09/22 11:27:02;;;;;;;1.73;0.73;;;19.90;93.80;;;;;;5053661;28;20053;-76
2022/09/22 11:29:44;;;;;;;4.13;1.45;;;20.00;95.00;;;;;;5055720;28;20135;-76
2022/09/22 11:32:44;;;;;;;1.35;0.60;;;20.10;94.60;;;;;;5054961;28;20086;-76
2022/09/22 11:35:25;;;;;;;1.42;0.98;;;20.10;92.90;;;;;;5008056;28;20124;-76
2022/09/22 11:38:18;;;;;;;3.97;0.85;;;20.20;93.70;;;;;;5054882;28;20049;-76
2022/09/22 11:41:00;;;;;;;2.05;0.90;;;20.40;93.70;;;;;;5054942;28;20052;-76
2022/09/22 11:44:00;;;;;;;4.05;1.63;;;20.50;92.50;;;;;;5053510;28;20074;-76
2022/09/22 11:46:54;;;;;;;2.42;0.80;;;20.50;91.00;;;;;;5054720;28;20024;-76
2022/09/22 11:49:58;;;;;;;2.72;0.28;;;20.60;92.20;;;;;;5054770;28;20474;-76
2022/09/22 11:52:58;;;;;;;1.52;0.20;;;20.60;90.10;;;;;;5054532;28;20021;-76
2022/09/22 11:55:44;;;;;;;1.75;0.20;;;20.70;90.20;;;;;;5054965;28;20049;-76
2022/09/22 11:58:18;;;;;;;0.55;0.38;;;20.80;87.80;;;;;;5054357;28;20059;-76
2022/09/22 12:00:51;;;;;;;2.53;0.20;;;20.90;88.20;;;;;;5054351;28;20024;-76
2022/09/22 12:03:34;;;;;;;1.67;0.28;;;20.90;86.10;;;;;;5054334;28;20107;-76
2022/09/22 12:06:07;;;;;;;0.68;0.00;;;21.00;87.30;;;;;;5054455;28;20535;-76
2022/09/22 12:08:52;;;;;;;0.43;0.00;;;21.20;85.60;;;;;;5054445;28;20116;-76
2022/09/22 12:11:19;;;;;;;0.40;0.00;;;21.20;81.00;;;;;;5054192;28;20101;-76
2022/09/22 12:13:47;;;;;;;0.43;0.00;;;21.30;82.30;;;;;;5054086;28;20025;-75
2022/09/22 12:16:12;;;;;;;0.10;0.00;;;21.40;78.30;;;;;;5053859;28;20044;-76
2022/09/22 12:19:04;;;;;;;0.90;0.13;;;21.60;78.50;;;;;;5052809;28;20557;-76
2022/09/22 12:21:51;;;;;;;0.20;0.00;;;21.60;76.80;;;;;;5052716;28;20078;-76
2022/09/22 12:24:17;;;;;;;0.20;0.00;;;21.90;79.60;;;;;;5052703;28;20021;-76
2022/09/22 12:26:45;;;;;;;1.85;0.00;;;21.90;74.30;;;;;;5053707;28;20056;-75
2022/09/22 12:29:13;;;;;;;0.47;0.10;;;21.90;74.90;;;;;;5054065;28;20021;-76
2022/09/22 12:31:50;;;;;;;0.20;0.00;;;21.90;72.90;;;;;;5053749;28;20040;-76
2022/09/22 12:34:23;;;;;;;0.20;0.00;;;21.80;74.00;;;;;;5053685;28;20096;-76
2022/09/22 12:36:56;;;;;;;2.40;0.10;;;21.80;73.10;;;;;;5052575;28;20116;-76
2022/09/22 12:39:26;;;;;;;1.88;0.00;;;21.80;72.10;;;;;;5052658;28;20116;-76
2022/09/22 12:41:56;;;;;;;0.82;0.00;;;21.70;72.30;;;;;;5054473;28;20024;-76
2022/09/22 12:44:24;;;;;;;1.13;0.00;;;21.50;72.60;;;;;;5053712;28;20538;-76
2022/09/22 12:46:51;;;;;;;2.85;0.10;;;21.80;75.80;;;;;;5053556;28;20078;-76
2022/09/22 12:49:21;;;;;;;0.10;0.10;;;22.00;71.50;;;;;;5052185;28;20024;-76
2022/09/22 12:51:48;;;;;;;0.13;0.13;;;22.00;71.40;;;;;;5053593;28;20028;-76
2022/09/22 12:54:22;;;;;;;0.85;0.00;;;22.30;75.00;;;;;;5052250;28;20021;-75
2022/09/22 12:57:20;;;;;;;1.23;0.00;;;22.60;71.50;;;;;;5051892;28;20639;-75
2022/09/22 12:59:54;;;;;;;2.33;0.10;;;22.90;71.80;;;;;;5053890;28;20024;-76
2022/09/22 13:02:30;;;;;;;0.25;0.10;;;23.10;67.00;;;;;;5052091;28;20440;-75
2022/09/22 13:04:59;;;;;;;2.22;0.10;;;23.20;68.60;;;;;;5051975;28;20017;-75
2022/09/22 13:07:39;;;;;;;0.70;0.00;;;23.40;66.50;;;;;;5053139;28;20036;-75
2022/09/22 13:10:23;;;;;;;0.63;0.00;;;23.50;67.00;;;;;;5051912;28;20025;-75
2022/09/22 13:13:04;;;;;;;0.28;0.28;;;23.50;64.20;;;;;;5053776;28;20028;-75
2022/09/22 13:15:36;;;;;;;0.20;0.00;;;23.40;64.40;;;;;;5053150;28;20048;-75
2022/09/22 13:18:02;;;;;;;0.98;0.00;;;23.50;65.00;;;;;;5053456;28;20029;-75
2022/09/22 13:20:32;;;;;;;4.65;0.00;;;23.60;64.90;;;;;;5051867;28;20551;-75
2022/09/22 13:23:10;;;;;;;0.98;0.00;;;23.60;62.10;;;;;;5053107;28;20056;-75
2022/09/22 13:25:37;;;;;;;0.65;0.00;;;23.40;63.10;;;;;;5052967;28;20056;-75
2022/09/22 13:28:16;;;;;;;3.83;0.00;;;23.30;64.80;;;;;;5052946;28;20550;-74
2022/09/22 13:30:43;;;;;;;1.17;0.00;;;23.40;62.40;;;;;;5053011;28;20092;-75